sensor_id;sensor_type;location;lat;lon;timestamp;pressure;altitude;pressure_sealevel;temperature;humidity
36138;BME280;67787;50.074;21.904;2023-09-19T04:00:32;98450.21;;;18.64;71.03
36138;BME280;67787;50.074;21.904;2023-09-19T04:03:03;98451.17;;;18.56;71.05
36138;BME280;67787;50.074;21.904;2023-09-19T04:05:35;98453.73;;;18.51;70.92
36138;BME280;67787;50.074;21.904;2023-09-19T04:08:03;98454.66;;;18.46;71.19
36138;BME280;67787;50.074;21.904;2023-09-19T04:10:31;98455.63;;;18.42;71.27
36138;BME280;67787;50.074;21.904;2023-09-19T04:12:59;98453.48;;;18.36;71.21
36138;BME280;67787;50.074;21.904;2023-09-19T04:15:27;98455.20;;;18.30;71.37
36138;BME280;67787;50.074;21.904;2023-09-19T04:17:55;98450.61;;;18.25;71.34
36138;BME280;67787;50.074;21.904;2023-09-19T04:20:23;98450.57;;;18.20;71.34
36138;BME280;67787;50.074;21.904;2023-09-19T04:22:51;98449.19;;;18.17;71.34
36138;BME280;67787;50.074;21.904;2023-09-19T04:25:20;98443.98;;;18.10;71.36
36138;BME280;67787;50.074;21.904;2023-09-19T04:27:48;98447.33;;;18.08;71.54
36138;BME280;67787;50.074;21.904;2023-09-19T04:30:19;98441.08;;;18.06;71.68
36138;BME280;67787;50.074;21.904;2023-09-19T04:32:49;98441.83;;;18.04;71.85
36138;BME280;67787;50.074;21.904;2023-09-19T04:35:19;98439.01;;;18.02;71.65
36138;BME280;67787;50.074;21.904;2023-09-19T04:37:47;98433.08;;;18.00;71.71
36138;BME280;67787;50.074;21.904;2023-09-19T04:40:16;98432.58;;;17.98;71.73
36138;BME280;67787;50.074;21.904;2023-09-19T04:42:53;98435.34;;;17.98;71.62
36138;BME280;67787;50.074;21.904;2023-09-19T04:45:24;98430.33;;;17.96;71.80
36138;BME280;67787;50.074;21.904;2023-09-19T04:47:52;98432.35;;;17.94;71.78
36138;BME280;67787;50.074;21.904;2023-09-19T04:50:21;98430.73;;;17.94;71.90
36138;BME280;67787;50.074;21.904;2023-09-19T04:52:55;98434.60;;;17.94;71.96
36138;BME280;67787;50.074;21.904;2023-09-19T04:55:24;98429.66;;;17.95;72.02
36138;BME280;67787;50.074;21.904;2023-09-19T04:57:53;98426.18;;;17.96;71.82
36138;BME280;67787;50.074;21.904;2023-09-19T05:00:22;98426.08;;;17.97;72.04
36138;BME280;67787;50.074;21.904;2023-09-19T05:02:57;98426.55;;;17.96;72.05
36138;BME280;67787;50.074;21.904;2023-09-19T05:05:25;98429.96;;;17.96;72.13
36138;BME280;67787;50.074;21.904;2023-09-19T05:07:54;98429.73;;;17.95;72.11
36138;BME280;67787;50.074;21.904;2023-09-19T05:10:24;98429.02;;;17.95;72.07
36138;BME280;67787;50.074;21.904;2023-09-19T05:12:54;98428.77;;;17.95;72.09
36138;BME280;67787;50.074;21.904;2023-09-19T05:15:22;98431.11;;;17.93;72.03
36138;BME280;67787;50.074;21.904;2023-09-19T05:17:51;98428.00;;;17.91;72.11
36138;BME280;67787;50.074;21.904;2023-09-19T05:20:25;98422.33;;;17.89;72.17
36138;BME280;67787;50.074;21.904;2023-09-19T05:23:05;98424.95;;;17.90;72.15
36138;BME280;67787;50.074;21.904;2023-09-19T05:25:36;98426.23;;;17.91;72.38
36138;BME280;67787;50.074;21.904;2023-09-19T05:28:06;98421.81;;;17.92;72.34
36138;BME280;67787;50.074;21.904;2023-09-19T05:30:36;98417.34;;;17.95;72.21
36138;BME280;67787;50.074;21.904;2023-09-19T05:33:06;98417.27;;;17.97;72.31
36138;BME280;67787;50.074;21.904;2023-09-19T05:35:36;98412.41;;;17.99;72.27
36138;BME280;67787;50.074;21.904;2023-09-19T05:38:09;98409.95;;;18.02;72.34
36138;BME280;67787;50.074;21.904;2023-09-19T05:40:40;98405.90;;;18.05;72.25
36138;BME280;67787;50.074;21.904;2023-09-19T05:43:12;98405.98;;;18.08;72.46
36138;BME280;67787;50.074;21.904;2023-09-19T05:45:42;98406.92;;;18.11;72.48
36138;BME280;67787;50.074;21.904;2023-09-19T05:48:11;98404.92;;;18.16;72.44
36138;BME280;67787;50.074;21.904;2023-09-19T05:50:41;98406.79;;;18.22;72.53
36138;BME280;67787;50.074;21.904;2023-09-19T05:53:12;98405.48;;;18.27;72.55
36138;BME280;67787;50.074;21.904;2023-09-19T05:55:43;98404.63;;;18.30;72.62
36138;BME280;67787;50.074;21.904;2023-09-19T05:58:13;98409.21;;;18.34;72.57
36138;BME280;67787;50.074;21.904;2023-09-19T06:00:42;98415.03;;;18.38;72.39
36138;BME280;67787;50.074;21.904;2023-09-19T06:03:12;98413.67;;;18.40;72.35
36138;BME280;67787;50.074;21.904;2023-09-19T06:05:42;98414.03;;;18.41;72.55
36138;BME280;67787;50.074;21.904;2023-09-19T06:08:10;98416.33;;;18.42;72.66
36138;BME280;67787;50.074;21.904;2023-09-19T06:10:38;98425.78;;;18.42;72.55
36138;BME280;67787;50.074;21.904;2023-09-19T06:13:06;98425.10;;;18.42;72.60
36138;BME280;67787;50.074;21.904;2023-09-19T06:15:38;98420.80;;;18.42;72.44
36138;BME280;67787;50.074;21.904;2023-09-19T06:18:11;98428.03;;;18.41;72.44
36138;BME280;67787;50.074;21.904;2023-09-19T06:20:43;98432.02;;;18.43;72.51
36138;BME280;67787;50.074;21.904;2023-09-19T06:23:13;98430.45;;;18.44;72.63
36138;BME280;67787;50.074;21.904;2023-09-19T06:25:41;98433.98;;;18.44;72.55
36138;BME280;67787;50.074;21.904;2023-09-19T06:28:13;98434.30;;;18.45;72.63
36138;BME280;67787;50.074;21.904;2023-09-19T06:30:42;98428.13;;;18.44;72.61
36138;BME280;67787;50.074;21.904;2023-09-19T06:33:10;98428.59;;;18.43;72.68
36138;BME280;67787;50.074;21.904;2023-09-19T06:35:43;98430.11;;;18.42;72.41
36138;BME280;67787;50.074;21.904;2023-09-19T06:38:12;98431.64;;;18.40;72.50
36138;BME280;67787;50.074;21.904;2023-09-19T06:40:41;98428.30;;;18.41;72.64
36138;BME280;67787;50.074;21.904;2023-09-19T06:43:12;98430.13;;;18.40;72.54
36138;BME280;67787;50.074;21.904;2023-09-19T06:45:40;98423.36;;;18.40;72.68
36138;BME280;67787;50.074;21.904;2023-09-19T06:48:08;98422.23;;;18.39;72.58
36138;BME280;67787;50.074;21.904;2023-09-19T06:50:38;98423.04;;;18.38;72.66
36138;BME280;67787;50.074;21.904;2023-09-19T06:53:06;98419.64;;;18.38;72.80
36138;BME280;67787;50.074;21.904;2023-09-19T06:55:35;98422.27;;;18.39;72.63
36138;BME280;67787;50.074;21.904;2023-09-19T06:58:04;98424.34;;;18.39;72.75
36138;BME280;67787;50.074;21.904;2023-09-19T07:00:33;98430.58;;;18.40;72.84
36138;BME280;67787;50.074;21.904;2023-09-19T07:03:05;98432.33;;;18.43;72.71
36138;BME280;67787;50.074;21.904;2023-09-19T07:05:37;98434.25;;;18.48;72.81
36138;BME280;67787;50.074;21.904;2023-09-19T07:08:08;98434.91;;;18.52;72.64
36138;BME280;67787;50.074;21.904;2023-09-19T07:10:41;98443.70;;;18.57;72.72
36138;BME280;67787;50.074;21.904;2023-09-19T07:13:16;98434.78;;;18.59;72.72
36138;BME280;67787;50.074;21.904;2023-09-19T07:15:45;98429.94;;;18.62;72.92
36138;BME280;67787;50.074;21.904;2023-09-19T07:18:18;98429.15;;;18.66;72.84
36138;BME280;67787;50.074;21.904;2023-09-19T07:20:46;98430.16;;;18.70;72.75
36138;BME280;67787;50.074;21.904;2023-09-19T07:23:19;98427.21;;;18.73;72.90
36138;BME280;67787;50.074;21.904;2023-09-19T07:25:49;98431.26;;;18.76;72.82
36138;BME280;67787;50.074;21.904;2023-09-19T07:28:18;98432.95;;;18.78;72.83
36138;BME280;67787;50.074;21.904;2023-09-19T07:30:49;98434.81;;;18.78;72.73
36138;BME280;67787;50.074;21.904;2023-09-19T07:33:18;98435.50;;;18.77;72.78
36138;BME280;67787;50.074;21.904;2023-09-19T07:35:46;98433.73;;;18.76;72.82
36138;BME280;67787;50.074;21.904;2023-09-19T07:38:15;98436.10;;;18.76;72.82
36138;BME280;67787;50.074;21.904;2023-09-19T07:40:45;98438.90;;;18.77;72.77
36138;BME280;67787;50.074;21.904;2023-09-19T07:43:14;98439.86;;;18.76;72.99
36138;BME280;67787;50.074;21.904;2023-09-19T07:45:41;98442.46;;;18.77;72.78
36138;BME280;67787;50.074;21.904;2023-09-19T07:48:10;98442.02;;;18.78;72.74
36138;BME280;67787;50.074;21.904;2023-09-19T07:50:43;98441.98;;;18.78;72.74
36138;BME280;67787;50.074;21.904;2023-09-19T07:53:13;98441.71;;;18.79;72.86
36138;BME280;67787;50.074;21.904;2023-09-19T07:55:41;98443.05;;;18.79;72.80
36138;BME280;67787;50.074;21.904;2023-09-19T07:58:12;98442.34;;;18.81;72.83
36138;BME280;67787;50.074;21.904;2023-09-19T08:00:41;98441.96;;;18.81;72.86
36138;BME280;67787;50.074;21.904;2023-09-19T08:03:09;98441.00;;;18.80;72.60
36138;BME280;67787;50.074;21.904;2023-09-19T08:05:45;98439.91;;;18.80;72.67
36138;BME280;67787;50.074;21.904;2023-09-19T08:08:14;98441.14;;;18.79;72.83
36138;BME280;67787;50.074;21.904;2023-09-19T08:10:55;98438.16;;;18.77;72.62
36138;BME280;67787;50.074;21.904;2023-09-19T08:13:25;98434.56;;;18.75;72.76
36138;BME280;67787;50.074;21.904;2023-09-19T08:15:53;98434.42;;;18.73;72.79
36138;BME280;67787;50.074;21.904;2023-09-19T08:18:21;98432.58;;;18.72;72.87
36138;BME280;67787;50.074;21.904;2023-09-19T08:20:52;98432.41;;;18.70;72.96
36138;BME280;67787;50.074;21.904;2023-09-19T08:23:20;98430.00;;;18.70;72.59
36138;BME280;67787;50.074;21.904;2023-09-19T08:25:48;98427.99;;;18.69;72.74
36138;BME280;67787;50.074;21.904;2023-09-19T08:28:17;98425.80;;;18.69;72.76
36138;BME280;67787;50.074;21.904;2023-09-19T08:30:52;98423.11;;;18.69;72.83
36138;BME280;67787;50.074;21.904;2023-09-19T08:33:24;98423.67;;;18.68;72.81
36138;BME280;67787;50.074;21.904;2023-09-19T08:35:52;98424.94;;;18.67;72.85
36138;BME280;67787;50.074;21.904;2023-09-19T08:38:20;98425.04;;;18.66;72.77
36138;BME280;67787;50.074;21.904;2023-09-19T08:40:48;98424.76;;;18.64;72.82
36138;BME280;67787;50.074;21.904;2023-09-19T08:43:16;98424.27;;;18.62;72.68
36138;BME280;67787;50.074;21.904;2023-09-19T08:45:44;98426.36;;;18.61;72.82
36138;BME280;67787;50.074;21.904;2023-09-19T08:48:16;98429.39;;;18.59;72.86
36138;BME280;67787;50.074;21.904;2023-09-19T08:53:38;98428.44;;;18.57;72.69
36138;BME280;67787;50.074;21.904;2023-09-19T08:56:10;98430.77;;;18.57;72.71
36138;BME280;67787;50.074;21.904;2023-09-19T08:58:46;98434.75;;;18.58;72.72
36138;BME280;67787;50.074;21.904;2023-09-19T09:01:16;98432.30;;;18.59;72.93
36138;BME280;67787;50.074;21.904;2023-09-19T09:03:45;98433.08;;;18.58;72.89
36138;BME280;67787;50.074;21.904;2023-09-19T09:06:17;98434.38;;;18.60;72.96
36138;BME280;67787;50.074;21.904;2023-09-19T09:08:46;98436.80;;;18.60;72.80
36138;BME280;67787;50.074;21.904;2023-09-19T09:11:15;98436.13;;;18.60;72.86
36138;BME280;67787;50.074;21.904;2023-09-19T09:13:45;98439.53;;;18.60;72.85
36138;BME280;67787;50.074;21.904;2023-09-19T09:16:14;98436.23;;;18.61;72.83
36138;BME280;67787;50.074;21.904;2023-09-19T09:18:49;98435.10;;;18.61;72.94
36138;BME280;67787;50.074;21.904;2023-09-19T09:21:25;98434.05;;;18.63;72.87
36138;BME280;67787;50.074;21.904;2023-09-19T09:23:53;98438.45;;;18.65;72.90
36138;BME280;67787;50.074;21.904;2023-09-19T09:29:08;98442.19;;;18.70;72.93
36138;BME280;67787;50.074;21.904;2023-09-19T09:31:36;98445.05;;;18.70;72.86
36138;BME280;67787;50.074;21.904;2023-09-19T09:34:08;98446.64;;;18.70;73.01
36138;BME280;67787;50.074;21.904;2023-09-19T09:36:40;98445.96;;;18.70;73.02
36138;BME280;67787;50.074;21.904;2023-09-19T09:39:13;98445.06;;;18.68;73.01
36138;BME280;67787;50.074;21.904;2023-09-19T09:41:46;98449.65;;;18.66;73.01
36138;BME280;67787;50.074;21.904;2023-09-19T09:44:17;98452.17;;;18.63;72.91
36138;BME280;67787;50.074;21.904;2023-09-19T09:46:47;98456.13;;;18.59;72.81
36138;BME280;67787;50.074;21.904;2023-09-19T09:49:26;98458.91;;;18.59;73.01
36138;BME280;67787;50.074;21.904;2023-09-19T09:52:03;98460.29;;;18.55;72.98
36138;BME280;67787;50.074;21.904;2023-09-19T09:54:58;98453.46;;;18.50;73.16
36138;BME280;67787;50.074;21.904;2023-09-19T09:57:27;98459.14;;;18.46;73.25
36138;BME280;67787;50.074;21.904;2023-09-19T09:59:59;98458.56;;;18.40;73.17
36138;BME280;67787;50.074;21.904;2023-09-19T10:02:43;98464.08;;;18.36;73.15
36138;BME280;67787;50.074;21.904;2023-09-19T10:05:16;98462.97;;;18.30;73.32
36138;BME280;67787;50.074;21.904;2023-09-19T10:07:50;98465.96;;;18.22;73.13
36138;BME280;67787;50.074;21.904;2023-09-19T10:10:38;98471.20;;;18.17;73.30
36138;BME280;67787;50.074;21.904;2023-09-19T10:13:29;98468.14;;;18.11;73.33
36138;BME280;67787;50.074;21.904;2023-09-19T10:15:58;98470.77;;;18.05;73.44
36138;BME280;67787;50.074;21.904;2023-09-19T10:18:32;98468.92;;;17.99;73.53
36138;BME280;67787;50.074;21.904;2023-09-19T10:21:04;98468.55;;;17.92;73.52
36138;BME280;67787;50.074;21.904;2023-09-19T10:23:34;98470.02;;;17.87;73.63
36138;BME280;67787;50.074;21.904;2023-09-19T10:26:05;98473.63;;;17.85;73.80
36138;BME280;67787;50.074;21.904;2023-09-19T10:28:35;98474.70;;;17.82;73.53
36138;BME280;67787;50.074;21.904;2023-09-19T10:31:05;98474.48;;;17.79;73.62
36138;BME280;67787;50.074;21.904;2023-09-19T10:33:37;98468.79;;;17.77;73.66
36138;BME280;67787;50.074;21.904;2023-09-19T10:36:06;98473.23;;;17.78;73.66
36138;BME280;67787;50.074;21.904;2023-09-19T10:38:37;98466.30;;;17.79;73.88
36138;BME280;67787;50.074;21.904;2023-09-19T10:41:08;98469.89;;;17.80;74.03
36138;BME280;67787;50.074;21.904;2023-09-19T10:43:39;98466.95;;;17.76;73.96
36138;BME280;67787;50.074;21.904;2023-09-19T10:46:13;98466.48;;;17.79;74.29
36138;BME280;67787;50.074;21.904;2023-09-19T10:48:41;98467.14;;;17.81;74.04
36138;BME280;67787;50.074;21.904;2023-09-19T10:51:33;98468.14;;;17.82;74.32
36138;BME280;67787;50.074;21.904;2023-09-19T10:54:09;98467.20;;;17.83;74.12
36138;BME280;67787;50.074;21.904;2023-09-19T10:56:47;98463.14;;;17.85;74.25
36138;BME280;67787;50.074;21.904;2023-09-19T10:59:21;98468.17;;;17.86;74.17
36138;BME280;67787;50.074;21.904;2023-09-19T11:01:55;98464.46;;;17.87;74.46
36138;BME280;67787;50.074;21.904;2023-09-19T11:04:35;98464.30;;;17.87;74.21
36138;BME280;67787;50.074;21.904;2023-09-19T11:07:09;98468.77;;;17.91;74.41
36138;BME280;67787;50.074;21.904;2023-09-19T11:09:54;98466.11;;;17.93;74.57
36138;BME280;67787;50.074;21.904;2023-09-19T11:26:42;98457.02;;;18.01;74.70
36138;BME280;67787;50.074;21.904;2023-09-19T11:31:54;98452.86;;;18.05;74.98
36138;BME280;67787;50.074;21.904;2023-09-19T11:40:05;98447.10;;;18.13;75.02
36138;BME280;67787;50.074;21.904;2023-09-19T11:42:49;98451.23;;;18.14;75.23
36138;BME280;67787;50.074;21.904;2023-09-19T11:48:28;98452.22;;;18.13;74.93
36138;BME280;67787;50.074;21.904;2023-09-19T11:50:57;98451.52;;;18.12;75.17
36138;BME280;67787;50.074;21.904;2023-09-19T11:53:31;98453.64;;;18.12;75.19
36138;BME280;67787;50.074;21.904;2023-09-19T11:56:06;98453.81;;;18.12;75.13
36138;BME280;67787;50.074;21.904;2023-09-19T11:58:38;98453.63;;;18.12;75.07
36138;BME280;67787;50.074;21.904;2023-09-19T12:01:14;98453.58;;;18.11;75.11
36138;BME280;67787;50.074;21.904;2023-09-19T12:03:46;98451.74;;;18.13;75.44
36138;BME280;67787;50.074;21.904;2023-09-19T12:06:15;98457.27;;;18.13;75.35
36138;BME280;67787;50.074;21.904;2023-09-19T12:08:44;98457.02;;;18.14;75.20
36138;BME280;67787;50.074;21.904;2023-09-19T12:11:17;98459.47;;;18.14;75.38
36138;BME280;67787;50.074;21.904;2023-09-19T12:13:47;98460.58;;;18.16;75.57
36138;BME280;67787;50.074;21.904;2023-09-19T12:16:19;98464.14;;;18.16;75.60
36138;BME280;67787;50.074;21.904;2023-09-19T12:18:51;98465.73;;;18.15;75.66
36138;BME280;67787;50.074;21.904;2023-09-19T12:21:23;98473.46;;;18.14;75.70
36138;BME280;67787;50.074;21.904;2023-09-19T12:24:04;98477.83;;;18.12;75.71
36138;BME280;67787;50.074;21.904;2023-09-19T12:26:43;98480.98;;;18.11;75.91
36138;BME280;67787;50.074;21.904;2023-09-19T12:29:20;98479.11;;;18.11;75.98
36138;BME280;67787;50.074;21.904;2023-09-19T12:31:53;98479.70;;;18.10;75.90
36138;BME280;67787;50.074;21.904;2023-09-19T12:34:33;98483.38;;;18.11;76.07
36138;BME280;67787;50.074;21.904;2023-09-19T12:37:07;98485.58;;;18.10;76.12
36138;BME280;67787;50.074;21.904;2023-09-19T12:39:50;98486.45;;;18.08;76.47
36138;BME280;67787;50.074;21.904;2023-09-19T12:42:22;98487.34;;;18.05;76.22
36138;BME280;67787;50.074;21.904;2023-09-19T12:44:51;98489.06;;;18.04;76.57
36138;BME280;67787;50.074;21.904;2023-09-19T12:47:28;98496.86;;;18.03;76.47
36138;BME280;67787;50.074;21.904;2023-09-19T12:50:14;98496.67;;;18.01;77.07
36138;BME280;67787;50.074;21.904;2023-09-19T12:52:47;98499.41;;;17.97;76.61
36138;BME280;67787;50.074;21.904;2023-09-19T13:06:02;98505.55;;;17.84;77.39
36138;BME280;67787;50.074;21.904;2023-09-19T13:08:33;98510.61;;;17.83;77.41
36138;BME280;67787;50.074;21.904;2023-09-19T13:14:23;98517.68;;;17.80;77.50
36138;BME280;67787;50.074;21.904;2023-09-19T13:19:50;98527.30;;;17.75;77.48
36138;BME280;67787;50.074;21.904;2023-09-19T13:22:44;98532.75;;;17.75;77.44
36138;BME280;67787;50.074;21.904;2023-09-19T13:25:22;98535.14;;;17.74;77.52
36138;BME280;67787;50.074;21.904;2023-09-19T13:27:54;98536.77;;;17.73;78.06
36138;BME280;67787;50.074;21.904;2023-09-19T13:30:24;98539.06;;;17.70;77.86
36138;BME280;67787;50.074;21.904;2023-09-19T13:33:04;98543.90;;;17.68;78.18
36138;BME280;67787;50.074;21.904;2023-09-19T13:35:38;98549.52;;;17.67;77.73
36138;BME280;67787;50.074;21.904;2023-09-19T13:38:08;98549.82;;;17.66;78.19
36138;BME280;67787;50.074;21.904;2023-09-19T13:40:40;98550.42;;;17.66;77.98
36138;BME280;67787;50.074;21.904;2023-09-19T13:43:11;98548.23;;;17.66;78.13
36138;BME280;67787;50.074;21.904;2023-09-19T13:45:40;98553.31;;;17.65;77.93
36138;BME280;67787;50.074;21.904;2023-09-19T13:48:10;98550.19;;;17.66;78.08
36138;BME280;67787;50.074;21.904;2023-09-19T13:50:41;98555.27;;;17.66;78.70
36138;BME280;67787;50.074;21.904;2023-09-19T13:53:10;98556.11;;;17.65;78.57
36138;BME280;67787;50.074;21.904;2023-09-19T13:55:40;98557.95;;;17.64;78.04
36138;BME280;67787;50.074;21.904;2023-09-19T13:58:09;98562.33;;;17.65;78.29
36138;BME280;67787;50.074;21.904;2023-09-19T14:00:38;98561.45;;;17.65;78.64
36138;BME280;67787;50.074;21.904;2023-09-19T14:03:06;98568.45;;;17.65;78.64
36138;BME280;67787;50.074;21.904;2023-09-19T14:05:37;98568.73;;;17.64;78.55
36138;BME280;67787;50.074;21.904;2023-09-19T14:08:05;98567.46;;;17.64;78.55
36138;BME280;67787;50.074;21.904;2023-09-19T14:10:33;98572.17;;;17.65;78.71
36138;BME280;67787;50.074;21.904;2023-09-19T14:13:06;98574.36;;;17.65;78.54
36138;BME280;67787;50.074;21.904;2023-09-19T14:15:36;98577.86;;;17.66;78.87
36138;BME280;67787;50.074;21.904;2023-09-19T14:18:05;98582.94;;;17.65;78.65
36138;BME280;67787;50.074;21.904;2023-09-19T14:20:38;98581.66;;;17.65;78.85
36138;BME280;67787;50.074;21.904;2023-09-19T14:23:07;98587.98;;;17.67;79.10
36138;BME280;67787;50.074;21.904;2023-09-19T14:25:36;98586.83;;;17.67;78.93
36138;BME280;67787;50.074;21.904;2023-09-19T14:28:05;98585.70;;;17.66;79.37
36138;BME280;67787;50.074;21.904;2023-09-19T14:30:35;98588.34;;;17.66;79.29
36138;BME280;67787;50.074;21.904;2023-09-19T14:33:05;98592.48;;;17.66;79.22
36138;BME280;67787;50.074;21.904;2023-09-19T14:35:36;98589.89;;;17.67;79.30
36138;BME280;67787;50.074;21.904;2023-09-19T14:38:05;98592.71;;;17.67;79.25
36138;BME280;67787;50.074;21.904;2023-09-19T14:40:33;98588.34;;;17.68;79.12
36138;BME280;67787;50.074;21.904;2023-09-19T14:43:01;98592.11;;;17.70;79.49
36138;BME280;67787;50.074;21.904;2023-09-19T14:45:31;98593.96;;;17.71;79.35
36138;BME280;67787;50.074;21.904;2023-09-19T14:48:24;98593.02;;;17.71;79.60
36138;BME280;67787;50.074;21.904;2023-09-19T14:51:15;98596.43;;;17.73;79.16
36138;BME280;67787;50.074;21.904;2023-09-19T14:53:43;98595.95;;;17.74;79.37
36138;BME280;67787;50.074;21.904;2023-09-19T14:56:11;98598.52;;;17.75;79.42
36138;BME280;67787;50.074;21.904;2023-09-19T14:58:40;98599.29;;;17.75;79.68
36138;BME280;67787;50.074;21.904;2023-09-19T15:01:11;98601.91;;;17.75;79.50
36138;BME280;67787;50.074;21.904;2023-09-19T15:03:41;98605.81;;;17.76;79.43
36138;BME280;67787;50.074;21.904;2023-09-19T15:06:11;98608.64;;;17.76;79.25
36138;BME280;67787;50.074;21.904;2023-09-19T15:08:47;98612.50;;;17.77;79.56
36138;BME280;67787;50.074;21.904;2023-09-19T15:11:19;98613.95;;;17.77;79.41
36138;BME280;67787;50.074;21.904;2023-09-19T15:13:51;98618.60;;;17.79;79.56
36138;BME280;67787;50.074;21.904;2023-09-19T15:16:20;98622.83;;;17.79;79.58
36138;BME280;67787;50.074;21.904;2023-09-19T15:18:48;98625.17;;;17.80;79.58
36138;BME280;67787;50.074;21.904;2023-09-19T15:21:16;98630.96;;;17.82;79.47
36138;BME280;67787;50.074;21.904;2023-09-19T15:23:44;98632.08;;;17.83;80.04
36138;BME280;67787;50.074;21.904;2023-09-19T15:26:14;98630.80;;;17.83;79.74
36138;BME280;67787;50.074;21.904;2023-09-19T15:28:49;98634.83;;;17.84;80.07
36138;BME280;67787;50.074;21.904;2023-09-19T15:31:17;98637.12;;;17.83;80.26
36138;BME280;67787;50.074;21.904;2023-09-19T15:33:45;98638.36;;;17.81;80.01
36138;BME280;67787;50.074;21.904;2023-09-19T15:36:14;98648.25;;;17.81;79.94
36138;BME280;67787;50.074;21.904;2023-09-19T15:39:03;98646.39;;;17.80;79.81
36138;BME280;67787;50.074;21.904;2023-09-19T15:41:39;98649.08;;;17.80;79.97
36138;BME280;67787;50.074;21.904;2023-09-19T15:44:18;98653.95;;;17.80;79.94
36138;BME280;67787;50.074;21.904;2023-09-19T15:46:51;98655.23;;;17.80;80.27
36138;BME280;67787;50.074;21.904;2023-09-19T15:49:20;98656.17;;;17.79;80.04
36138;BME280;67787;50.074;21.904;2023-09-19T15:51:48;98656.45;;;17.78;80.09
36138;BME280;67787;50.074;21.904;2023-09-19T15:54:16;98661.59;;;17.79;80.09
36138;BME280;67787;50.074;21.904;2023-09-19T15:56:46;98661.96;;;17.79;80.00
36138;BME280;67787;50.074;21.904;2023-09-19T15:59:14;98666.66;;;17.78;80.12
36138;BME280;67787;50.074;21.904;2023-09-19T16:01:43;98667.48;;;17.77;80.44
36138;BME280;67787;50.074;21.904;2023-09-19T16:04:12;98670.58;;;17.76;80.31
36138;BME280;67787;50.074;21.904;2023-09-19T16:06:40;98674.63;;;17.74;80.68
36138;BME280;67787;50.074;21.904;2023-09-19T16:09:09;98671.14;;;17.74;80.44
36138;BME280;67787;50.074;21.904;2023-09-19T16:11:39;98671.48;;;17.74;80.08
36138;BME280;67787;50.074;21.904;2023-09-19T16:14:09;98672.15;;;17.74;80.52
36138;BME280;67787;50.074;21.904;2023-09-19T16:16:38;98671.48;;;17.74;80.35
36138;BME280;67787;50.074;21.904;2023-09-19T16:19:06;98674.43;;;17.73;80.61
36138;BME280;67787;50.074;21.904;2023-09-19T16:21:39;98675.98;;;17.72;80.62
36138;BME280;67787;50.074;21.904;2023-09-19T16:24:09;98683.46;;;17.71;80.49
36138;BME280;67787;50.074;21.904;2023-09-19T16:26:38;98684.66;;;17.69;80.61
36138;BME280;67787;50.074;21.904;2023-09-19T16:29:06;98688.87;;;17.69;80.40
36138;BME280;67787;50.074;21.904;2023-09-19T16:31:34;98684.97;;;17.68;80.41
36138;BME280;67787;50.074;21.904;2023-09-19T16:34:05;98686.85;;;17.67;80.57
36138;BME280;67787;50.074;21.904;2023-09-19T16:36:33;98688.13;;;17.67;80.45
36138;BME280;67787;50.074;21.904;2023-09-19T16:39:02;98690.34;;;17.67;80.47
36138;BME280;67787;50.074;21.904;2023-09-19T16:41:31;98690.17;;;17.67;80.44
36138;BME280;67787;50.074;21.904;2023-09-19T16:44:00;98697.48;;;17.65;80.59
36138;BME280;67787;50.074;21.904;2023-09-19T16:46:28;98705.63;;;17.64;80.77
36138;BME280;67787;50.074;21.904;2023-09-19T16:48:56;98705.23;;;17.63;80.82
36138;BME280;67787;50.074;21.904;2023-09-19T16:51:31;98707.67;;;17.62;80.88
36138;BME280;67787;50.074;21.904;2023-09-19T16:54:00;98709.59;;;17.61;80.69
36138;BME280;67787;50.074;21.904;2023-09-19T19:28:53;98865.96;;;17.64;81.03
36138;BME280;67787;50.074;21.904;2023-09-19T19:49:58;98879.42;;;17.54;81.18
36138;BME280;67787;50.074;21.904;2023-09-19T20:21:09;98891.42;;;17.44;81.35
36138;BME280;67787;50.074;21.904;2023-09-19T20:24:11;98894.16;;;17.43;81.28
